createdAt,value
2023-01-20T00:01:53.726Z,14.00
2023-01-20T00:04:19.163Z,14.23
2023-01-20T00:06:42.795Z,14.17
2023-01-20T00:09:07.106Z,13.73
2023-01-20T00:11:31.430Z,13.47
2023-01-20T00:13:56.518Z,12.80
2023-01-20T00:16:20.075Z,13.33
2023-01-20T00:18:45.037Z,13.20
2023-01-20T00:21:10.754Z,13.80
2023-01-20T00:23:34.596Z,13.13
2023-01-20T00:25:58.133Z,13.50
2023-01-20T00:28:21.736Z,13.87
2023-01-20T00:30:45.268Z,13.93
2023-01-20T00:33:09.085Z,13.90
2023-01-20T00:35:33.982Z,14.97
2023-01-20T00:37:57.544Z,13.73
2023-01-20T00:40:21.185Z,14.63
2023-01-20T00:42:44.786Z,13.80
2023-01-20T00:45:09.694Z,14.73
2023-01-20T00:47:33.314Z,14.20
2023-01-20T00:49:57.338Z,13.87
2023-01-20T00:52:22.550Z,13.97
2023-01-20T00:54:46.168Z,12.77
2023-01-20T00:57:09.763Z,13.20
2023-01-20T00:59:33.866Z,12.40
2023-01-20T01:01:57.760Z,13.23
2023-01-20T01:04:21.368Z,12.83
2023-01-20T01:06:44.963Z,12.60
2023-01-20T01:09:09.902Z,13.63
2023-01-20T01:11:33.531Z,13.13
2023-01-20T01:13:58.206Z,12.40
2023-01-20T01:16:21.796Z,13.00
2023-01-20T01:18:45.469Z,12.63
2023-01-20T01:21:10.578Z,12.70
2023-01-20T01:23:34.078Z,13.43
2023-01-20T01:25:59.385Z,12.43
2023-01-20T01:28:22.928Z,12.27
2023-01-20T01:30:46.494Z,12.23
2023-01-20T01:33:09.994Z,12.80
2023-01-20T01:35:33.649Z,12.97
2023-01-20T01:37:57.169Z,12.43
2023-01-20T01:40:20.938Z,12.97
2023-01-20T01:42:45.839Z,12.17
2023-01-20T01:45:29.046Z,12.67
2023-01-20T01:48:00.333Z,12.87
2023-01-20T01:50:27.780Z,13.10
2023-01-20T01:52:54.928Z,11.53
2023-01-20T01:55:22.673Z,11.97
2023-01-20T01:57:48.562Z,12.03
2023-01-20T02:00:13.542Z,12.70
2023-01-20T02:02:37.244Z,11.80
2023-01-20T02:05:00.887Z,13.23
2023-01-20T02:07:24.456Z,12.93
2023-01-20T02:09:48.249Z,11.73
2023-01-20T02:12:16.131Z,12.40
2023-01-20T02:14:46.890Z,13.47
2023-01-20T02:17:24.749Z,12.50
2023-01-20T02:20:38.533Z,11.93
2023-01-20T02:23:10.319Z,12.53
2023-01-20T02:26:22.311Z,12.10
2023-01-20T02:29:09.264Z,12.30
2023-01-20T02:32:05.437Z,12.53
2023-01-20T02:34:34.400Z,12.80
2023-01-20T02:37:03.871Z,12.90
2023-01-20T02:39:32.912Z,13.57
2023-01-20T02:42:05.056Z,12.13
2023-01-20T02:44:37.248Z,12.80
2023-01-20T02:47:09.209Z,13.83
2023-01-20T02:49:38.030Z,13.57
2023-01-20T02:52:08.443Z,13.43
2023-01-20T02:54:36.092Z,14.17
2023-01-20T02:57:03.817Z,12.47
2023-01-20T02:59:32.512Z,14.13
2023-01-20T03:02:02.691Z,15.10
2023-01-20T03:04:31.089Z,15.47
2023-01-20T03:06:57.962Z,14.47
2023-01-20T03:09:28.585Z,15.30
2023-01-20T03:11:57.102Z,14.40
2023-01-20T03:14:20.991Z,14.40
2023-01-20T03:16:48.214Z,14.53
2023-01-20T03:19:13.283Z,14.77
2023-01-20T03:21:37.353Z,14.40
2023-01-20T03:24:03.381Z,14.33
2023-01-20T03:26:26.958Z,15.47
2023-01-20T03:28:50.934Z,15.67
2023-01-20T03:31:20.158Z,14.87
2023-01-20T03:33:45.142Z,16.30
2023-01-20T03:36:11.520Z,12.43
2023-01-20T03:38:35.197Z,9.80
2023-01-20T03:41:05.773Z,15.90
2023-01-20T03:43:40.285Z,15.83
2023-01-20T03:46:11.587Z,16.27
2023-01-20T03:48:43.601Z,16.33
2023-01-20T03:51:16.748Z,16.80
2023-01-20T03:53:47.635Z,13.47
2023-01-20T03:56:19.443Z,16.17
2023-01-20T03:58:47.200Z,16.47
2023-01-20T04:01:18.369Z,17.80
2023-01-20T04:03:47.493Z,17.03
2023-01-20T04:06:14.918Z,17.00
2023-01-20T04:08:45.630Z,17.13
2023-01-20T04:11:10.272Z,17.70
2023-01-20T04:13:34.018Z,17.47
2023-01-20T04:15:59.309Z,18.10
2023-01-20T04:18:25.224Z,16.93
2023-01-20T04:20:51.980Z,17.90
2023-01-20T04:23:22.413Z,18.13
2023-01-20T04:25:46.828Z,17.37
2023-01-20T04:28:10.386Z,18.77
2023-01-20T04:30:33.989Z,18.07
2023-01-20T04:32:57.573Z,18.73
2023-01-20T04:35:22.104Z,18.47
2023-01-20T04:37:45.635Z,18.50
2023-01-20T04:40:12.986Z,18.23
2023-01-20T04:42:36.803Z,18.03
2023-01-20T04:45:00.642Z,17.90
2023-01-20T04:47:24.260Z,18.13
2023-01-20T04:49:47.791Z,17.70
2023-01-20T04:52:11.329Z,18.90
2023-01-20T04:54:35.039Z,19.67
2023-01-20T04:56:59.980Z,18.57
2023-01-20T04:59:23.746Z,19.33
2023-01-20T05:01:47.365Z,18.37
2023-01-20T05:04:11.005Z,18.80
2023-01-20T05:06:35.368Z,18.37
2023-01-20T05:08:58.941Z,18.63
2023-01-20T05:11:22.525Z,18.33
2023-01-20T05:13:47.447Z,19.40
2023-01-20T05:16:12.745Z,18.23
2023-01-20T05:18:36.803Z,18.23
2023-01-20T05:21:00.378Z,18.30
2023-01-20T05:23:23.943Z,19.90
2023-01-20T05:25:51.985Z,17.40
2023-01-20T05:28:15.510Z,19.57
2023-01-20T05:30:40.522Z,18.97
2023-01-20T05:33:04.129Z,19.23
2023-01-20T05:35:27.837Z,18.77
2023-01-20T05:37:55.465Z,17.63
2023-01-20T05:40:19.429Z,17.47
2023-01-20T05:42:42.972Z,17.70
2023-01-20T05:45:09.330Z,19.07
2023-01-20T05:47:34.277Z,18.23
2023-01-20T05:49:57.822Z,18.60
2023-01-20T05:52:21.464Z,19.27
2023-01-20T05:54:45.487Z,18.90
2023-01-20T05:57:09.100Z,18.67
2023-01-20T05:59:32.708Z,19.27
2023-01-20T06:01:58.621Z,18.43
2023-01-20T06:04:23.801Z,19.23
2023-01-20T06:06:47.405Z,19.27
2023-01-20T06:09:11.078Z,19.80
2023-01-20T06:11:34.941Z,18.07
2023-01-20T06:13:58.475Z,18.33
2023-01-20T06:16:22.383Z,19.00
2023-01-20T06:18:45.963Z,18.93
2023-01-20T06:21:11.257Z,18.73
2023-01-20T06:23:35.017Z,18.03
2023-01-20T06:26:03.417Z,19.13
2023-01-20T06:28:27.014Z,19.20
2023-01-20T06:30:50.621Z,19.20
2023-01-20T06:33:14.194Z,18.77
2023-01-20T06:35:38.486Z,18.77
2023-01-20T06:38:03.687Z,15.13
2023-01-20T06:40:27.269Z,18.97
2023-01-20T06:42:50.887Z,19.13
2023-01-20T06:45:16.957Z,18.57
2023-01-20T06:47:40.618Z,17.80
2023-01-20T06:50:04.344Z,17.97
2023-01-20T06:52:27.910Z,17.63
2023-01-20T06:54:52.804Z,19.73
2023-01-20T06:57:16.321Z,19.70
2023-01-20T06:59:39.865Z,18.43
2023-01-20T07:02:03.517Z,19.80
2023-01-20T07:04:27.184Z,19.07
2023-01-20T07:06:50.755Z,21.37
2023-01-20T07:09:15.116Z,21.03
2023-01-20T07:11:40.460Z,20.80
2023-01-20T07:14:04.818Z,20.93
2023-01-20T07:16:28.406Z,19.60
2023-01-20T07:18:53.838Z,19.93
2023-01-20T07:21:18.024Z,19.93
2023-01-20T07:23:41.686Z,20.93
2023-01-20T07:26:07.979Z,20.90
2023-01-20T07:28:34.524Z,21.30
2023-01-20T07:31:00.942Z,20.27
2023-01-20T07:33:24.576Z,20.90
2023-01-20T07:35:54.442Z,20.33
2023-01-20T07:38:18.103Z,20.03
2023-01-20T07:40:41.694Z,19.93
2023-01-20T07:43:05.672Z,20.77
2023-01-20T07:45:30.712Z,19.10
2023-01-20T07:47:57.295Z,19.57
2023-01-20T07:50:20.811Z,19.87
2023-01-20T07:52:44.367Z,20.70
2023-01-20T07:55:08.804Z,18.10
2023-01-20T07:57:32.383Z,18.13
2023-01-20T07:59:55.959Z,17.97
2023-01-20T08:02:20.942Z,18.67
2023-01-20T08:04:44.685Z,17.50
2023-01-20T08:07:08.214Z,17.10
2023-01-20T08:09:31.757Z,18.63
2023-01-20T08:11:55.381Z,17.93
2023-01-20T08:14:18.955Z,19.00
2023-01-20T08:16:42.578Z,19.43
2023-01-20T08:19:07.507Z,17.97
2023-01-20T08:21:33.006Z,18.40
2023-01-20T08:23:57.346Z,19.73
2023-01-20T08:26:21.239Z,17.40
2023-01-20T08:28:45.083Z,19.63
2023-01-20T08:31:11.424Z,18.43
2023-01-20T08:33:35.217Z,18.97
2023-01-20T08:36:07.064Z,18.97
2023-01-20T08:38:30.698Z,19.57
2023-01-20T08:40:54.227Z,20.07
2023-01-20T08:43:18.002Z,20.23
2023-01-20T08:45:43.693Z,21.33
2023-01-20T08:48:08.806Z,22.43
2023-01-20T08:50:32.348Z,21.90
2023-01-20T08:52:57.298Z,21.77
2023-01-20T08:55:20.876Z,23.07
2023-01-20T08:57:45.655Z,22.67
2023-01-20T09:00:11.584Z,23.20
2023-01-20T09:02:35.276Z,21.77
2023-01-20T09:04:58.839Z,21.50
2023-01-20T09:07:22.636Z,21.80
2023-01-20T09:09:47.849Z,23.73
2023-01-20T09:12:11.543Z,22.40
2023-01-20T09:14:35.075Z,22.87
2023-01-20T09:16:58.931Z,22.87
2023-01-20T09:19:22.557Z,22.83
2023-01-20T09:21:46.189Z,22.40
2023-01-20T09:24:10.391Z,22.77
2023-01-20T09:26:39.463Z,23.40
2023-01-20T09:29:09.408Z,23.20
2023-01-20T09:31:33.595Z,22.77
2023-01-20T09:33:57.175Z,22.43
2023-01-20T09:36:20.743Z,22.50
2023-01-20T09:39:01.663Z,22.17
2023-01-20T09:41:57.581Z,22.47
2023-01-20T09:44:49.564Z,22.63
2023-01-20T09:47:31.193Z,23.40
2023-01-20T09:50:51.092Z,22.60
2023-01-20T09:53:44.859Z,23.00
2023-01-20T09:56:16.520Z,20.47
2023-01-20T09:58:47.709Z,22.70
2023-01-20T10:01:19.860Z,21.93
2023-01-20T10:03:50.055Z,21.90
2023-01-20T10:06:20.935Z,22.43
2023-01-20T10:09:04.455Z,23.17
2023-01-20T10:11:32.959Z,23.30
2023-01-20T10:14:06.720Z,23.30
2023-01-20T10:16:39.015Z,22.80
2023-01-20T10:19:06.430Z,22.13
2023-01-20T10:21:35.692Z,22.30
2023-01-20T10:24:03.843Z,22.30
2023-01-20T10:26:33.540Z,22.10
2023-01-20T10:29:02.180Z,22.87
2023-01-20T10:31:29.708Z,23.17
2023-01-20T10:33:59.712Z,25.43
2023-01-20T10:36:28.866Z,23.57
2023-01-20T10:38:58.147Z,22.73
2023-01-20T10:41:33.248Z,22.53
2023-01-20T10:43:58.252Z,22.37
2023-01-20T10:46:50.215Z,23.30
2023-01-20T10:49:59.139Z,24.43
2023-01-20T10:52:46.515Z,22.83
2023-01-20T10:55:26.015Z,21.77
2023-01-20T10:57:53.888Z,23.00
2023-01-20T11:00:23.701Z,23.17
2023-01-20T11:02:49.553Z,22.93
2023-01-20T11:05:20.627Z,22.97
2023-01-20T11:07:46.190Z,24.47
2023-01-20T11:10:17.056Z,22.90
2023-01-20T11:12:43.889Z,23.37
2023-01-20T11:15:21.378Z,22.27
2023-01-20T11:17:44.977Z,23.13
2023-01-20T11:20:20.427Z,22.90
2023-01-20T11:22:49.482Z,22.83
2023-01-20T11:25:26.947Z,23.37
2023-01-20T11:27:50.610Z,21.93
2023-01-20T11:30:28.173Z,23.70
2023-01-20T11:33:17.508Z,24.53
2023-01-20T11:35:58.757Z,24.27
2023-01-20T11:38:25.957Z,24.20
2023-01-20T11:40:55.122Z,23.53
2023-01-20T11:43:35.737Z,24.10
2023-01-20T11:46:20.068Z,23.30
2023-01-20T11:48:45.208Z,22.67
2023-01-20T11:51:23.042Z,22.90
2023-01-20T11:53:47.509Z,23.50
2023-01-20T11:56:20.668Z,24.63
2023-01-20T11:58:55.527Z,23.47
2023-01-20T12:01:25.612Z,24.47
2023-01-20T12:04:19.790Z,24.00
2023-01-20T12:06:54.972Z,22.63
2023-01-20T12:09:22.211Z,22.53
2023-01-20T12:11:56.159Z,21.93
2023-01-20T12:14:29.227Z,23.87
2023-01-20T12:17:06.008Z,21.87
2023-01-20T12:19:40.530Z,21.97
2023-01-20T12:22:14.052Z,22.40
2023-01-20T12:25:08.951Z,22.67
2023-01-20T12:27:33.334Z,22.33
2023-01-20T12:30:01.289Z,22.27
2023-01-20T12:32:24.967Z,24.50
2023-01-20T12:34:48.508Z,23.30
2023-01-20T12:37:22.866Z,22.27
2023-01-20T12:40:12.052Z,22.23
2023-01-20T12:43:23.577Z,22.30
2023-01-20T12:46:27.251Z,21.40
2023-01-20T12:49:11.849Z,20.67
2023-01-20T12:51:50.015Z,20.17
2023-01-20T12:54:58.821Z,20.87
2023-01-20T12:57:43.314Z,20.97
2023-01-20T13:00:45.619Z,19.43
2023-01-20T13:03:44.339Z,19.97
2023-01-20T13:07:00.808Z,19.90
2023-01-20T13:09:40.573Z,19.43
2023-01-20T13:12:18.677Z,20.20
2023-01-20T13:14:46.325Z,19.97
2023-01-20T13:17:20.713Z,21.43
2023-01-20T13:19:48.307Z,21.37
2023-01-20T13:22:17.071Z,22.03
2023-01-20T13:24:46.427Z,22.33
2023-01-20T13:27:11.489Z,22.10
2023-01-20T13:29:55.365Z,22.53
2023-01-20T13:32:42.035Z,22.70
2023-01-20T13:35:49.876Z,20.20
2023-01-20T13:38:25.712Z,20.57
2023-01-20T13:40:58.717Z,20.07
2023-01-20T13:43:57.996Z,19.83
2023-01-20T13:46:48.338Z,19.80
2023-01-20T13:49:30.805Z,20.27
2023-01-20T13:51:54.692Z,19.40
2023-01-20T13:54:39.064Z,20.17
2023-01-20T13:57:46.772Z,19.93
2023-01-20T14:00:19.658Z,19.70
2023-01-20T14:02:43.511Z,20.23
2023-01-20T14:05:25.457Z,20.90
2023-01-20T14:07:49.016Z,20.00
2023-01-20T14:10:14.500Z,19.00
2023-01-20T14:12:42.122Z,18.93
2023-01-20T14:15:09.292Z,19.87
2023-01-20T14:17:33.360Z,19.73
2023-01-20T14:19:57.851Z,20.73
2023-01-20T14:22:25.824Z,20.73
2023-01-20T14:24:50.187Z,19.63
2023-01-20T14:27:20.056Z,20.20
2023-01-20T14:29:43.612Z,19.17
2023-01-20T14:32:22.043Z,20.43
2023-01-20T14:34:46.509Z,20.83
2023-01-20T14:37:26.292Z,20.33
2023-01-20T14:39:51.244Z,22.27
2023-01-20T14:42:21.139Z,22.03
2023-01-20T14:44:49.369Z,20.03
2023-01-20T14:47:14.645Z,22.97
2023-01-20T14:49:39.697Z,21.60
2023-01-20T14:52:03.716Z,22.33
2023-01-20T14:54:40.734Z,22.20
2023-01-20T14:57:25.360Z,21.47
2023-01-20T14:59:49.969Z,22.77
2023-01-20T15:02:29.279Z,21.43
2023-01-20T15:04:53.036Z,21.20
2023-01-20T15:07:21.445Z,22.33
2023-01-20T15:09:54.463Z,21.37
2023-01-20T15:12:53.765Z,22.43
2023-01-20T15:15:26.251Z,20.80
2023-01-20T15:18:20.024Z,22.20
2023-01-20T15:20:47.086Z,21.73
2023-01-20T15:23:22.711Z,22.40
2023-01-20T15:25:46.358Z,23.07
2023-01-20T15:28:29.623Z,22.63
2023-01-20T15:30:54.406Z,21.50
2023-01-20T15:33:21.570Z,22.30
2023-01-20T15:35:45.238Z,21.60
2023-01-20T15:38:13.054Z,22.80
2023-01-20T15:40:39.733Z,22.20
2023-01-20T15:43:03.273Z,20.80
2023-01-20T15:45:26.921Z,22.07
2023-01-20T15:47:50.548Z,22.00
2023-01-20T15:50:19.302Z,21.77
2023-01-20T15:52:42.957Z,21.63
2023-01-20T15:55:07.679Z,21.37
2023-01-20T15:57:31.253Z,21.90
2023-01-20T15:59:54.862Z,22.13
2023-01-20T16:02:20.634Z,20.83
2023-01-20T16:04:44.203Z,22.10
2023-01-20T16:07:13.834Z,21.53
2023-01-20T16:09:38.643Z,21.83
2023-01-20T16:12:02.176Z,22.60
2023-01-20T16:14:25.850Z,22.03
2023-01-20T16:16:49.489Z,22.10
2023-01-20T16:19:14.962Z,21.63
2023-01-20T16:21:38.457Z,21.17
2023-01-20T16:24:03.446Z,20.87
2023-01-20T16:26:29.664Z,21.17
2023-01-20T16:28:55.224Z,21.67
2023-01-20T16:31:19.437Z,22.97
2023-01-20T16:33:43.347Z,22.47
2023-01-20T16:36:12.274Z,24.47
2023-01-20T16:38:35.903Z,25.83
2023-01-20T16:41:07.835Z,24.33
2023-01-20T16:43:31.699Z,24.13
2023-01-20T16:45:56.113Z,24.03
2023-01-20T16:48:20.052Z,24.83
2023-01-20T16:50:43.593Z,25.97
2023-01-20T16:53:07.202Z,25.47
2023-01-20T16:55:30.737Z,25.47
2023-01-20T16:57:55.841Z,26.80
2023-01-20T17:00:21.228Z,25.17
2023-01-20T17:02:45.568Z,23.63
2023-01-20T17:05:10.085Z,23.73
2023-01-20T17:07:34.209Z,26.60
2023-01-20T17:09:57.716Z,25.03
2023-01-20T17:12:21.329Z,27.47
2023-01-20T17:14:46.340Z,31.03
2023-01-20T17:17:10.038Z,26.10
2023-01-20T17:19:33.574Z,22.87
2023-01-20T17:21:57.319Z,23.63
2023-01-20T17:24:20.897Z,25.10
2023-01-20T17:26:44.534Z,24.13
2023-01-20T17:29:08.617Z,24.87
2023-01-20T17:31:36.650Z,22.93
2023-01-20T17:34:00.722Z,23.47
2023-01-20T17:36:24.344Z,27.57
2023-01-20T17:38:48.141Z,29.03
2023-01-20T17:41:12.716Z,27.83
2023-01-20T17:43:38.448Z,27.37
2023-01-20T17:46:02.823Z,27.40
2023-01-20T17:48:27.834Z,27.30
2023-01-20T17:50:51.456Z,27.57
2023-01-20T17:53:15.012Z,27.77
2023-01-20T17:55:38.637Z,26.07
2023-01-20T17:58:02.290Z,27.27
2023-01-20T18:00:26.099Z,25.87
2023-01-20T18:02:50.124Z,28.13
2023-01-20T18:05:15.314Z,27.33
2023-01-20T18:07:39.370Z,26.70
2023-01-20T18:10:02.934Z,25.00
2023-01-20T18:12:26.556Z,22.87
2023-01-20T18:14:50.755Z,22.60
2023-01-20T18:17:14.332Z,21.40
2023-01-20T18:19:38.002Z,21.83
2023-01-20T18:22:06.881Z,21.20
2023-01-20T18:24:30.588Z,21.43
2023-01-20T18:26:55.334Z,23.53
2023-01-20T18:29:19.895Z,21.47
2023-01-20T18:31:44.771Z,23.10
2023-01-20T18:34:11.676Z,22.47
2023-01-20T18:36:38.243Z,23.80
2023-01-20T18:39:05.887Z,22.83
2023-01-20T18:41:32.029Z,22.13
2023-01-20T18:43:56.551Z,24.37
2023-01-20T18:46:20.787Z,24.30
2023-01-20T18:48:46.490Z,28.20
2023-01-20T18:51:11.011Z,23.47
2023-01-20T18:53:34.708Z,24.83
2023-01-20T18:56:02.904Z,23.90
2023-01-20T18:58:28.514Z,24.07
2023-01-20T19:00:52.076Z,22.63
2023-01-20T19:03:15.682Z,22.40
2023-01-20T19:05:39.242Z,22.73
2023-01-20T19:08:02.875Z,22.10
2023-01-20T19:10:27.068Z,21.90
2023-01-20T19:12:53.808Z,20.47
2023-01-20T19:15:17.458Z,23.13
2023-01-20T19:17:41.081Z,20.97
2023-01-20T19:20:05.736Z,22.60
2023-01-20T19:22:29.433Z,20.97
2023-01-20T19:24:52.966Z,20.90
2023-01-20T19:27:16.639Z,22.70
2023-01-20T19:29:41.559Z,23.63
2023-01-20T19:32:05.604Z,24.93
2023-01-20T19:34:29.409Z,23.87
2023-01-20T19:36:53.026Z,18.13
2023-01-20T19:39:16.682Z,20.43
2023-01-20T19:41:40.260Z,20.17
2023-01-20T19:44:06.899Z,19.90
2023-01-20T19:46:34.848Z,19.60
2023-01-20T19:49:00.216Z,21.07
2023-01-20T19:51:24.046Z,22.90
2023-01-20T19:53:50.079Z,21.53
2023-01-20T19:56:16.406Z,21.93
2023-01-20T19:58:40.946Z,22.63
2023-01-20T20:01:08.680Z,23.87
2023-01-20T20:03:33.714Z,22.53
2023-01-20T20:05:57.807Z,24.27
2023-01-20T20:08:21.357Z,24.30
2023-01-20T20:10:45.130Z,23.47
2023-01-20T20:13:08.636Z,22.20
2023-01-20T20:15:32.997Z,24.03
2023-01-20T20:17:56.602Z,22.60
2023-01-20T20:20:21.752Z,22.20
2023-01-20T20:22:45.332Z,22.90
2023-01-20T20:25:11.536Z,22.83
2023-01-20T20:27:35.456Z,23.20
2023-01-20T20:30:01.313Z,20.40
2023-01-20T20:32:27.264Z,22.00
2023-01-20T20:34:50.973Z,21.90
2023-01-20T20:37:15.876Z,20.90
2023-01-20T20:39:39.438Z,22.40
2023-01-20T20:42:02.985Z,21.47
2023-01-20T20:44:26.570Z,21.60
2023-01-20T20:46:50.148Z,26.13
2023-01-20T20:49:16.152Z,16.87
2023-01-20T20:51:39.747Z,20.20
2023-01-20T20:54:05.047Z,19.40
2023-01-20T20:56:31.690Z,20.83
2023-01-20T20:59:01.956Z,18.30
2023-01-20T21:01:26.090Z,18.50
2023-01-20T21:03:49.668Z,18.33
2023-01-20T21:06:13.919Z,19.13
2023-01-20T21:08:38.155Z,22.40
2023-01-20T21:11:05.586Z,24.27
2023-01-20T21:13:29.510Z,23.00
2023-01-20T21:15:59.569Z,20.60
2023-01-20T21:18:23.143Z,20.03
2023-01-20T21:20:46.686Z,20.40
2023-01-20T21:23:10.223Z,18.30
2023-01-20T21:25:33.841Z,15.83
2023-01-20T21:27:59.004Z,15.83
2023-01-20T21:30:22.758Z,18.87
2023-01-20T21:32:46.350Z,18.03
2023-01-20T21:35:10.940Z,16.20
2023-01-20T21:37:34.645Z,17.03
2023-01-20T21:39:58.174Z,16.10
2023-01-20T21:42:21.732Z,15.10
2023-01-20T21:44:45.648Z,14.17
2023-01-20T21:47:09.523Z,16.07
2023-01-20T21:49:50.503Z,17.17
2023-01-20T21:52:33.302Z,16.23
2023-01-20T21:54:56.964Z,17.83
2023-01-20T21:57:21.204Z,16.43
2023-01-20T21:59:46.849Z,17.67
2023-01-20T22:02:12.780Z,17.27
2023-01-20T22:04:36.416Z,16.87
2023-01-20T22:07:00.023Z,15.80
2023-01-20T22:09:23.580Z,13.97
2023-01-20T22:11:47.127Z,13.03
2023-01-20T22:14:11.362Z,16.07
2023-01-20T22:16:36.390Z,16.13
2023-01-20T22:19:00.067Z,16.33
2023-01-20T22:21:25.511Z,14.90
2023-01-20T22:23:49.172Z,16.40
2023-01-20T22:26:12.732Z,10.30
2023-01-20T22:28:39.896Z,14.47
2023-01-20T22:31:07.600Z,16.27
2023-01-20T22:33:32.558Z,15.57
2023-01-20T22:35:56.207Z,16.57
2023-01-20T22:38:19.947Z,15.37
2023-01-20T22:40:43.503Z,14.87
2023-01-20T22:43:07.084Z,14.70
2023-01-20T22:45:30.653Z,13.77
2023-01-20T22:47:56.354Z,16.03
2023-01-20T22:50:21.290Z,14.80
2023-01-20T22:52:45.409Z,15.37
2023-01-20T22:55:10.070Z,13.90
2023-01-20T22:57:33.701Z,15.07
2023-01-20T22:59:57.239Z,15.47
2023-01-20T23:02:20.935Z,14.40
2023-01-20T23:04:44.471Z,14.93
2023-01-20T23:07:09.466Z,14.43
2023-01-20T23:09:32.984Z,13.97
2023-01-20T23:11:56.567Z,16.00
2023-01-20T23:14:40.083Z,13.67
2023-01-20T23:17:03.684Z,13.37
2023-01-20T23:19:27.203Z,12.13
2023-01-20T23:21:50.853Z,12.17
2023-01-20T23:24:15.818Z,11.10
2023-01-20T23:26:39.436Z,11.03
2023-01-20T23:29:03.052Z,11.67
2023-01-20T23:31:28.663Z,10.77
2023-01-20T23:33:53.989Z,12.13
2023-01-20T23:36:20.966Z,12.57
2023-01-20T23:38:45.276Z,11.27
2023-01-20T23:41:10.530Z,10.60
2023-01-20T23:43:34.502Z,10.87
2023-01-20T23:45:59.610Z,10.73
2023-01-20T23:48:23.138Z,9.53
2023-01-20T23:50:46.875Z,8.47
2023-01-20T23:53:10.417Z,10.90
2023-01-20T23:55:33.998Z,10.30
2023-01-20T23:57:58.916Z,10.13
